Time;durP1;ratioP1;P1;durP2;ratioP2;P2;SDS_P1;SDS_P2;PMS_P1;PMS_P2;Temp;Humidity;BMP_temperature;BMP_pressure;BME280_temperature;BME280_humidity;BME280_pressure;Samples;Min_cycle;Max_cycle;Signal;HPM_P1;HPM_P2
2022/11/16 00:01:16;;;;;;;7.35;2.60;;;8.30;87.00;;;;;;5027965;28;20291;-69
2022/11/16 00:03:42;;;;;;;6.70;3.55;;;8.40;88.60;;;;;;5030860;28;20108;-70
2022/11/16 00:06:09;;;;;;;9.45;3.45;;;8.50;85.70;;;;;;5031162;28;20064;-69
2022/11/16 00:08:41;;;;;;;5.60;3.42;;;8.50;84.20;;;;;;5020235;28;20036;-70
2022/11/16 00:11:13;;;;;;;6.22;2.92;;;8.50;84.30;;;;;;5027070;28;20311;-69
2022/11/16 00:13:40;;;;;;;3.90;2.13;;;8.40;83.70;;;;;;5013550;28;20113;-69
2022/11/16 00:16:07;;;;;;;5.63;2.30;;;8.50;86.70;;;;;;5021973;28;20418;-69
2022/11/16 00:18:34;;;;;;;6.20;2.53;;;8.60;90.00;;;;;;5032863;28;20369;-70
2022/11/16 00:21:01;;;;;;;5.55;2.70;;;8.60;88.10;;;;;;5021557;28;20088;-70
2022/11/16 00:23:27;;;;;;;5.63;2.83;;;8.60;89.40;;;;;;5035103;28;20017;-69
2022/11/16 00:26:04;;;;;;;5.53;2.40;;;8.60;88.00;;;;;;5025570;28;20419;-69
2022/11/16 00:28:29;;;;;;;5.47;2.33;;;8.60;86.40;;;;;;5016612;28;20056;-69
2022/11/16 00:30:59;;;;;;;5.93;2.60;;;8.60;87.50;;;;;;5011047;28;20030;-69
2022/11/16 00:33:26;;;;;;;5.88;2.42;;;8.70;87.40;;;;;;5017206;28;20030;-69
2022/11/16 00:35:52;;;;;;;7.43;2.40;;;8.70;86.30;;;;;;5033885;28;20103;-69
2022/11/16 00:38:17;;;;;;;4.40;2.05;;;8.70;86.90;;;;;;5032077;28;20128;-69
2022/11/16 00:40:43;;;;;;;6.25;2.38;;;8.80;87.80;;;;;;5024370;28;20026;-68
2022/11/16 00:43:09;;;;;;;7.18;2.20;;;8.80;87.30;;;;;;5015252;28;20120;-69
2022/11/16 00:45:34;;;;;;;6.30;2.60;;;8.90;86.40;;;;;;5031491;28;20034;-69
2022/11/16 00:48:00;;;;;;;5.50;2.45;;;8.80;84.70;;;;;;5031579;28;20029;-70
2022/11/16 00:50:25;;;;;;;4.82;2.38;;;8.80;83.20;;;;;;5034373;28;20538;-69
2022/11/16 00:52:52;;;;;;;6.38;2.30;;;8.80;81.70;;;;;;5018879;28;20057;-69
2022/11/16 00:55:18;;;;;;;6.50;2.35;;;8.80;81.20;;;;;;5016161;28;20130;-68
2022/11/16 00:57:44;;;;;;;5.97;2.53;;;8.70;80.60;;;;;;5023691;28;20025;-69
2022/11/16 01:00:10;;;;;;;3.80;1.98;;;8.70;79.70;;;;;;5023652;28;20028;-69
2022/11/16 01:02:36;;;;;;;5.13;2.22;;;8.70;79.80;;;;;;5023340;28;20234;-69
2022/11/16 01:05:02;;;;;;;4.80;1.70;;;8.80;81.40;;;;;;5040628;28;20366;-68
2022/11/16 01:07:27;;;;;;;3.58;2.03;;;8.90;82.10;;;;;;5023846;28;20038;-69
2022/11/16 01:09:53;;;;;;;3.42;1.83;;;8.90;82.80;;;;;;5029724;28;20176;-68
2022/11/16 01:12:19;;;;;;;3.05;1.58;;;9.00;83.00;;;;;;5040629;28;20071;-69
2022/11/16 01:14:46;;;;;;;3.08;1.38;;;9.00;83.30;;;;;;5037763;28;20033;-69
2022/11/16 01:17:13;;;;;;;3.63;1.58;;;9.10;83.10;;;;;;5024704;28;20053;-68
2022/11/16 01:19:39;;;;;;;3.65;1.80;;;9.20;85.00;;;;;;5031847;28;20079;-68
2022/11/16 01:22:08;;;;;;;3.83;1.88;;;9.20;84.30;;;;;;5020541;28;20031;-68
2022/11/16 01:24:34;;;;;;;3.03;1.60;;;9.10;83.50;;;;;;5026165;28;20025;-69
2022/11/16 01:26:59;;;;;;;4.05;1.70;;;9.10;82.60;;;;;;5024410;28;20441;-69
2022/11/16 01:29:27;;;;;;;5.15;2.15;;;9.10;80.50;;;;;;5024814;28;20091;-70
2022/11/16 01:31:53;;;;;;;4.00;2.00;;;9.00;80.30;;;;;;5028767;28;20076;-69
2022/11/16 01:34:19;;;;;;;4.53;2.10;;;8.90;79.60;;;;;;5029731;28;20021;-70
2022/11/16 01:36:44;;;;;;;4.43;2.10;;;8.90;78.00;;;;;;5038078;28;20116;-70
2022/11/16 01:39:18;;;;;;;4.72;1.80;;;8.90;77.30;;;;;;5018077;28;20021;-69
2022/11/16 01:41:44;;;;;;;2.58;1.33;;;8.90;76.00;;;;;;5026412;28;20026;-69
2022/11/16 01:44:32;;;;;;;4.50;1.70;;;9.00;74.90;;;;;;5034742;28;20026;-69
2022/11/16 01:47:10;;;;;;;4.32;1.75;;;9.00;75.20;;;;;;5036321;28;20430;-69
2022/11/16 01:49:40;;;;;;;3.25;1.38;;;9.10;75.30;;;;;;5013500;28;20042;-69
2022/11/16 01:52:13;;;;;;;5.40;1.67;;;9.10;76.50;;;;;;5032807;28;20021;-69
2022/11/16 01:54:45;;;;;;;3.28;1.30;;;9.20;77.00;;;;;;5039754;28;20033;-69
2022/11/16 01:57:19;;;;;;;2.72;1.50;;;9.30;78.60;;;;;;5024628;28;20026;-69
2022/11/16 01:59:49;;;;;;;;;;;9.30;80.00;;;;;;5029926;28;20026;-69
2022/11/16 02:02:15;;;;;;;2.78;1.20;;;9.40;81.50;;;;;;5036231;28;19909;-69
2022/11/16 02:04:41;;;;;;;2.70;1.30;;;9.40;82.90;;;;;;5036781;28;20025;-69
2022/11/16 02:07:24;;;;;;;2.75;1.30;;;9.50;84.30;;;;;;5032000;28;20025;-69
2022/11/16 02:10:24;;;;;;;3.35;1.30;;;9.50;85.30;;;;;;5035706;28;20060;-69
2022/11/16 02:13:37;;;;;;;3.72;1.05;;;9.60;86.20;;;;;;5032794;28;20171;-69
2022/11/16 02:16:31;;;;;;;2.63;1.27;;;9.60;87.40;;;;;;5005589;28;20046;-67
2022/11/16 02:18:59;;;;;;;2.22;1.20;;;9.70;87.90;;;;;;5028860;28;20045;-69
2022/11/16 02:21:41;;;;;;;2.47;1.10;;;9.70;88.30;;;;;;5029955;28;20029;-69
2022/11/16 02:24:36;;;;;;;2.60;1.33;;;9.70;88.00;;;;;;5013504;28;20152;-69
2022/11/16 02:27:35;;;;;;;3.03;1.30;;;9.60;88.20;;;;;;5039566;28;20033;-68
2022/11/16 02:30:02;;;;;;;2.28;1.10;;;9.70;89.20;;;;;;5026252;28;20053;-68
2022/11/16 02:32:47;;;;;;;2.00;1.08;;;9.70;89.90;;;;;;5033540;28;20030;-69
2022/11/16 02:35:33;;;;;;;3.03;1.42;;;9.70;88.00;;;;;;5036980;28;20445;-69
2022/11/16 02:38:05;;;;;;;2.42;1.30;;;9.70;87.30;;;;;;5037150;28;20322;-69
2022/11/16 02:40:34;;;;;;;1.85;1.00;;;9.60;86.30;;;;;;5038443;28;20378;-69
2022/11/16 02:43:07;;;;;;;2.38;1.20;;;9.60;85.50;;;;;;5026283;28;20025;-69
2022/11/16 02:45:38;;;;;;;2.47;1.33;;;9.60;85.50;;;;;;5022124;28;20022;-70
2022/11/16 02:48:11;;;;;;;3.00;1.20;;;9.60;85.30;;;;;;5039997;28;20018;-69
2022/11/16 02:50:38;;;;;;;2.35;1.08;;;9.60;84.50;;;;;;5017884;28;20061;-69
2022/11/16 02:53:03;;;;;;;2.40;1.20;;;9.60;85.10;;;;;;5028372;28;20040;-69
2022/11/16 02:55:32;;;;;;;3.70;1.20;;;9.60;84.30;;;;;;5032520;28;20426;-69
2022/11/16 02:58:01;;;;;;;3.40;1.20;;;9.60;84.50;;;;;;5014021;28;20026;-69
2022/11/16 03:00:51;;;;;;;2.05;1.10;;;9.60;84.80;;;;;;5030195;28;20021;-69
2022/11/16 03:03:49;;;;;;;3.13;0.90;;;9.60;84.90;;;;;;5035251;28;20385;-69
2022/11/16 03:06:23;;;;;;;2.15;0.90;;;9.70;88.60;;;;;;5033757;28;20104;-69
2022/11/16 03:08:58;;;;;;;1.50;0.90;;;9.70;88.80;;;;;;5025631;28;20096;-68
2022/11/16 03:14:15;;;;;;;;;;;9.60;87.60;;;;;;5031606;28;20095;-69
2022/11/16 03:16:44;;;;;;;2.35;1.10;;;9.70;87.90;;;;;;5024918;28;19920;-69
2022/11/16 03:19:15;;;;;;;2.28;1.10;;;9.60;87.30;;;;;;5033640;28;20073;-68
2022/11/16 03:21:54;;;;;;;1.83;1.00;;;9.60;85.00;;;;;;5035245;28;20049;-69
2022/11/16 03:24:20;;;;;;;7.35;1.30;;;9.50;84.20;;;;;;5024351;28;20028;-69
2022/11/16 03:26:55;;;;;;;2.25;1.10;;;9.50;84.20;;;;;;5027020;28;20044;-69
2022/11/16 03:29:37;;;;;;;2.58;1.00;;;9.50;83.60;;;;;;5032640;28;20044;-69
2022/11/16 03:32:37;;;;;;;2.17;1.10;;;9.50;85.60;;;;;;5031129;28;20041;-69
2022/11/16 03:35:09;;;;;;;3.22;1.20;;;9.40;83.70;;;;;;4995616;28;20044;-69
2022/11/16 03:37:37;;;;;;;3.25;1.20;;;9.40;82.20;;;;;;5032730;28;20026;-69
2022/11/16 03:40:03;;;;;;;3.28;1.40;;;9.30;80.10;;;;;;5031247;28;20109;-69
2022/11/16 03:42:31;;;;;;;2.58;1.30;;;9.30;78.50;;;;;;5033646;28;20021;-69
2022/11/16 03:44:57;;;;;;;2.83;1.20;;;9.30;77.40;;;;;;5025135;28;20014;-69
2022/11/16 03:47:23;;;;;;;1.95;1.05;;;9.20;77.00;;;;;;5032975;28;20021;-69
2022/11/16 03:49:48;;;;;;;1.73;1.00;;;9.30;77.40;;;;;;5021780;28;20040;-69
2022/11/16 03:52:16;;;;;;;2.65;1.10;;;9.30;77.40;;;;;;5019910;28;20037;-69
2022/11/16 03:54:41;;;;;;;1.92;1.00;;;9.30;78.50;;;;;;5035334;28;20049;-69
2022/11/16 03:57:14;;;;;;;3.67;1.05;;;9.40;81.50;;;;;;5028657;28;20101;-68
2022/11/16 03:59:41;;;;;;;2.95;0.98;;;9.40;83.70;;;;;;5032580;28;20025;-69
2022/11/16 04:02:06;;;;;;;1.85;0.98;;;9.40;85.00;;;;;;5034103;28;20053;-69
2022/11/16 04:29:13;;;;;;;1.92;0.98;;;9.50;87.50;;;;;;5027303;28;20211;-70
2022/11/16 04:39:58;;;;;;;1.95;0.90;;;9.60;91.00;;;;;;5034194;28;20032;-69
2022/11/16 04:42:24;;;;;;;1.92;1.00;;;9.60;90.20;;;;;;5029311;28;20022;-69
2022/11/16 04:47:34;;;;;;;1.52;0.93;;;9.70;92.60;;;;;;5024101;28;20051;-70
2022/11/16 04:49:59;;;;;;;3.83;1.20;;;9.70;91.80;;;;;;5022957;28;20029;-69
2022/11/16 04:52:25;;;;;;;2.60;1.27;;;9.70;91.50;;;;;;5018709;28;20026;-69
2022/11/16 04:54:50;;;;;;;4.70;1.50;;;9.60;88.50;;;;;;5029176;28;20496;-69
2022/11/16 04:57:16;;;;;;;2.65;1.40;;;9.50;85.50;;;;;;5032339;28;20365;-69
2022/11/16 04:59:42;;;;;;;3.28;1.77;;;9.40;83.20;;;;;;5032380;28;20036;-69
2022/11/16 05:02:08;;;;;;;2.78;1.55;;;9.30;82.60;;;;;;5030283;28;20080;-69
2022/11/16 05:04:42;;;;;;;3.60;1.90;;;9.30;81.10;;;;;;5033057;28;20074;-69
2022/11/16 05:07:10;;;;;;;4.22;2.05;;;9.20;80.10;;;;;;5024544;28;20032;-69
2022/11/16 05:09:45;;;;;;;3.17;1.75;;;9.30;81.30;;;;;;5031617;28;20040;-69
2022/11/16 05:12:16;;;;;;;3.20;1.80;;;9.30;80.60;;;;;;5031638;28;20030;-69
2022/11/16 05:14:44;;;;;;;3.03;1.50;;;9.30;81.90;;;;;;5030689;28;20100;-69
2022/11/16 05:17:10;;;;;;;3.00;1.50;;;9.20;81.70;;;;;;5034489;28;20095;-69
2022/11/16 05:22:20;;;;;;;4.53;1.48;;;9.20;82.60;;;;;;5026098;28;20040;-68
2022/11/16 05:24:47;;;;;;;2.42;1.23;;;9.20;87.30;;;;;;5029989;28;20494;-69
2022/11/16 05:27:14;;;;;;;2.10;1.10;;;9.20;90.00;;;;;;5023446;28;20045;-69
2022/11/16 05:29:41;;;;;;;3.70;1.05;;;9.30;90.60;;;;;;5019479;28;20057;-69
2022/11/16 05:32:08;;;;;;;2.30;1.10;;;9.30;90.00;;;;;;5032694;28;20033;-69
2022/11/16 05:34:34;;;;;;;3.67;1.30;;;9.30;89.80;;;;;;5030600;28;20026;-69
2022/11/16 05:37:00;;;;;;;4.03;1.80;;;9.30;89.50;;;;;;5034534;28;20056;-69
2022/11/16 05:39:26;;;;;;;4.78;1.88;;;9.30;90.10;;;;;;5027976;28;20018;-69
2022/11/16 05:41:52;;;;;;;3.67;1.70;;;9.30;89.40;;;;;;5030806;28;20033;-69
2022/11/16 05:44:18;;;;;;;3.90;1.83;;;9.30;88.20;;;;;;5024255;28;20025;-69
2022/11/16 05:46:44;;;;;;;3.17;1.70;;;9.30;88.80;;;;;;4948821;28;20056;-69
2022/11/16 05:49:10;;;;;;;4.30;1.70;;;9.20;88.60;;;;;;5035059;28;20033;-69
2022/11/16 05:51:38;;;;;;;2.78;1.70;;;9.20;88.30;;;;;;5034777;28;20029;-70
2022/11/16 05:54:04;;;;;;;4.00;1.80;;;9.20;88.20;;;;;;5031096;28;20030;-69
2022/11/16 05:56:31;;;;;;;4.15;2.15;;;9.20;87.40;;;;;;5034804;28;20112;-69
2022/11/16 05:58:57;;;;;;;4.78;1.75;;;9.10;88.50;;;;;;5029197;28;20017;-69
2022/11/16 06:01:24;;;;;;;4.00;1.80;;;9.10;88.70;;;;;;5032230;28;20143;-69
2022/11/16 06:03:49;;;;;;;3.80;1.80;;;9.10;89.60;;;;;;5030560;28;20026;-69
2022/11/16 06:06:15;;;;;;;3.83;1.80;;;9.20;90.80;;;;;;5036702;28;20029;-69
2022/11/16 06:08:43;;;;;;;4.47;1.92;;;9.10;89.80;;;;;;5033763;28;20101;-68
2022/11/16 06:11:10;;;;;;;4.25;1.85;;;9.10;89.80;;;;;;5034558;28;20103;-68
2022/11/16 06:13:36;;;;;;;4.13;1.95;;;9.00;89.00;;;;;;5025809;28;20029;-69
2022/11/16 06:16:03;;;;;;;4.40;2.20;;;9.00;89.80;;;;;;5014128;28;20022;-69
2022/11/16 06:18:29;;;;;;;2.95;1.50;;;9.00;89.60;;;;;;5032877;28;20037;-69
2022/11/16 06:20:55;;;;;;;3.20;1.60;;;9.00;89.60;;;;;;5033096;28;20018;-69
2022/11/16 06:23:21;;;;;;;3.10;1.70;;;9.00;89.10;;;;;;5027613;28;20426;-69
2022/11/16 06:25:51;;;;;;;6.40;3.22;;;9.00;88.60;;;;;;5031170;28;20037;-69
2022/11/16 06:28:16;;;;;;;5.47;3.30;;;9.00;88.20;;;;;;5022152;28;20052;-68
2022/11/16 06:30:46;;;;;;;4.30;2.17;;;9.00;90.40;;;;;;5033535;28;20052;-69
2022/11/16 06:33:11;;;;;;;4.22;1.88;;;8.90;91.10;;;;;;5036851;28;20032;-69
2022/11/16 06:35:37;;;;;;;7.80;2.65;;;8.90;89.80;;;;;;5027024;28;20315;-69
2022/11/16 06:38:03;;;;;;;5.03;2.10;;;8.80;89.50;;;;;;5024536;28;20026;-69
2022/11/16 06:40:32;;;;;;;5.53;2.10;;;8.70;88.60;;;;;;5026618;28;20040;-69
2022/11/16 06:42:57;;;;;;;3.80;2.05;;;8.60;88.40;;;;;;5028619;28;20021;-68
2022/11/16 06:45:23;;;;;;;3.53;1.90;;;8.60;87.60;;;;;;5037571;28;20033;-69
2022/11/16 06:47:49;;;;;;;6.38;2.17;;;8.50;87.30;;;;;;5039964;28;20024;-68
2022/11/16 06:50:18;;;;;;;2.90;1.50;;;8.50;87.10;;;;;;5035259;28;20045;-69
2022/11/16 06:52:48;;;;;;;4.55;2.35;;;8.60;87.80;;;;;;5036161;28;20057;-68
2022/11/16 06:55:14;;;;;;;4.30;2.22;;;8.60;88.00;;;;;;5038360;28;20076;-69
2022/11/16 06:57:40;;;;;;;4.55;1.92;;;8.70;87.40;;;;;;5030293;28;20133;-69
2022/11/16 07:00:07;;;;;;;4.05;1.95;;;8.70;87.60;;;;;;5017439;28;20057;-68
2022/11/16 07:02:35;;;;;;;4.70;1.90;;;8.80;88.20;;;;;;5020291;28;20072;-68
2022/11/16 07:05:01;;;;;;;4.63;2.20;;;8.70;89.70;;;;;;5020972;28;20022;-69
2022/11/16 07:07:26;;;;;;;4.80;1.73;;;8.70;90.00;;;;;;5032156;28;20040;-68
2022/11/16 07:09:52;;;;;;;5.95;2.17;;;8.70;89.30;;;;;;5017247;28;20125;-68
2022/11/16 07:12:17;;;;;;;5.22;2.35;;;8.80;89.90;;;;;;5023532;28;20061;-68
2022/11/16 07:14:44;;;;;;;4.68;2.03;;;8.90;91.30;;;;;;5036471;28;20374;-70
2022/11/16 07:17:10;;;;;;;8.73;4.00;;;9.00;93.20;;;;;;5039112;28;20112;-70
2022/11/16 07:19:36;;;;;;;4.72;2.60;;;9.00;93.10;;;;;;5028530;28;20106;-70
2022/11/16 07:22:02;;;;;;;5.00;3.00;;;9.00;92.10;;;;;;5034444;28;20060;-69
2022/11/16 07:24:28;;;;;;;6.25;3.00;;;9.00;92.80;;;;;;5026567;28;20335;-70
2022/11/16 07:26:53;;;;;;;5.03;2.50;;;9.00;92.50;;;;;;5040400;28;20035;-69
2022/11/16 07:29:20;;;;;;;4.30;2.28;;;9.00;93.00;;;;;;5029356;28;20091;-69
2022/11/16 07:31:46;;;;;;;5.35;2.80;;;9.00;93.00;;;;;;5031397;28;20018;-70
2022/11/16 07:34:13;;;;;;;5.43;2.90;;;9.00;91.90;;;;;;5033968;28;20112;-69
2022/11/16 07:36:42;;;;;;;6.40;2.67;;;9.00;91.60;;;;;;5015874;28;20433;-69
2022/11/16 07:39:09;;;;;;;6.75;3.15;;;9.10;91.80;;;;;;5026967;28;20541;-68
2022/11/16 07:41:38;;;;;;;7.70;3.30;;;9.30;93.40;;;;;;5032663;28;20056;-69
2022/11/16 07:44:04;;;;;;;10.38;3.75;;;9.30;93.10;;;;;;5036656;28;20052;-69
2022/11/16 07:46:30;;;;;;;5.28;2.70;;;9.50;93.80;;;;;;5028923;28;20033;-69
2022/11/16 07:48:56;;;;;;;5.70;2.80;;;9.50;94.90;;;;;;5016695;28;20026;-69
2022/11/16 07:51:22;;;;;;;198.68;72.55;;;9.50;96.10;;;;;;5007121;28;20059;-69
2022/11/16 07:53:52;;;;;;;7.72;3.53;;;9.50;95.90;;;;;;5035203;28;20438;-69
2022/11/16 07:56:18;;;;;;;5.13;2.75;;;9.60;96.40;;;;;;5033495;28;20040;-69
2022/11/16 07:58:44;;;;;;;5.68;2.88;;;9.70;95.80;;;;;;5035791;28;20022;-68
2022/11/16 08:01:15;;;;;;;5.93;3.20;;;9.80;96.90;;;;;;5017667;28;20614;-69
2022/11/16 08:03:42;;;;;;;5.25;2.55;;;9.90;97.40;;;;;;5037344;28;20075;-69
2022/11/16 08:06:15;;;;;;;5.72;2.90;;;10.00;98.00;;;;;;5034501;28;20040;-68
2022/11/16 08:08:41;;;;;;;5.80;2.33;;;10.00;98.00;;;;;;5031193;28;20049;-69
2022/11/16 08:11:09;;;;;;;5.10;2.78;;;10.10;98.00;;;;;;5031634;28;20029;-68
2022/11/16 08:13:39;;;;;;;6.18;2.97;;;10.30;98.00;;;;;;5035888;28;20140;-69
2022/11/16 08:16:10;;;;;;;7.43;3.08;;;10.50;98.00;;;;;;5034378;28;20432;-69
2022/11/16 08:18:36;;;;;;;5.32;2.40;;;10.40;98.00;;;;;;5020177;28;20025;-69
2022/11/16 08:21:03;;;;;;;5.97;2.90;;;10.30;98.00;;;;;;5040076;28;20048;-68
2022/11/16 08:23:30;;;;;;;6.18;3.28;;;10.20;98.00;;;;;;5031390;28;20418;-69
2022/11/16 08:26:04;;;;;;;7.93;3.15;;;10.10;98.00;;;;;;5035620;28;20091;-69
2022/11/16 08:28:31;;;;;;;7.57;3.40;;;10.10;98.00;;;;;;5035347;28;20049;-69
2022/11/16 08:30:57;;;;;;;5.25;2.45;;;10.10;98.00;;;;;;5036022;28;20068;-70
2022/11/16 08:33:24;;;;;;;6.05;2.63;;;10.10;98.00;;;;;;5035277;28;20353;-69
2022/11/16 08:35:51;;;;;;;4.45;2.28;;;10.10;98.00;;;;;;5021596;28;20430;-70
2022/11/16 08:38:20;;;;;;;5.65;2.58;;;10.10;98.00;;;;;;5015290;28;20026;-70
2022/11/16 08:40:46;;;;;;;5.13;2.30;;;10.10;98.00;;;;;;5015874;28;20026;-69
2022/11/16 08:43:12;;;;;;;6.85;3.00;;;10.10;98.00;;;;;;5029546;28;20025;-68
2022/11/16 08:45:38;;;;;;;7.95;4.47;;;10.00;98.00;;;;;;5035760;28;20033;-68
2022/11/16 08:48:06;;;;;;;7.85;3.05;;;10.10;98.00;;;;;;5023150;28;20033;-68
2022/11/16 08:50:32;;;;;;;6.55;2.40;;;10.10;98.00;;;;;;5015969;28;20029;-69
2022/11/16 08:52:58;;;;;;;6.53;3.00;;;10.30;98.00;;;;;;5015027;28;20030;-68
2022/11/16 08:55:25;;;;;;;11.88;4.47;;;10.50;98.00;;;;;;5034795;28;20032;-68
2022/11/16 08:57:50;;;;;;;5.35;2.55;;;10.90;98.00;;;;;;5025533;28;20076;-68
2022/11/16 09:00:17;;;;;;;5.03;2.03;;;11.70;98.00;;;;;;5031500;28;20021;-69
2022/11/16 09:02:42;;;;;;;7.20;3.78;;;12.80;96.90;;;;;;5037059;28;20029;-69
2022/11/16 09:05:10;;;;;;;4.45;1.50;;;13.60;94.10;;;;;;5035535;28;20104;-69
2022/11/16 09:07:38;;;;;;;4.43;2.00;;;13.70;91.90;;;;;;5027391;28;20038;-69
2022/11/16 09:10:05;;;;;;;4.18;1.10;;;14.00;90.40;;;;;;5026163;28;20026;-69
2022/11/16 09:12:34;;;;;;;4.28;1.30;;;14.00;89.50;;;;;;5019934;28;20051;-68
2022/11/16 09:14:59;;;;;;;3.97;1.27;;;13.60;89.90;;;;;;5019541;28;20026;-69
2022/11/16 09:17:25;;;;;;;3.20;1.20;;;13.50;91.50;;;;;;5026621;28;20028;-69
2022/11/16 09:19:51;;;;;;;4.35;1.25;;;13.40;91.70;;;;;;5046034;28;20056;-68
2022/11/16 09:22:17;;;;;;;5.60;2.03;;;13.50;90.80;;;;;;5033575;28;20179;-69
2022/11/16 09:24:42;;;;;;;5.75;2.20;;;13.40;91.30;;;;;;5019434;28;20446;-68
2022/11/16 09:27:08;;;;;;;6.85;2.38;;;13.20;91.90;;;;;;5019594;28;20331;-69
2022/11/16 09:29:33;;;;;;;5.07;1.48;;;12.90;93.30;;;;;;5038246;28;20110;-68
2022/11/16 09:31:59;;;;;;;4.18;1.20;;;13.20;92.40;;;;;;5037388;28;20350;-68
2022/11/16 09:34:25;;;;;;;6.47;2.40;;;13.20;92.40;;;;;;5019876;28;20371;-68
2022/11/16 09:36:51;;;;;;;3.95;1.58;;;13.40;92.10;;;;;;5019394;28;20040;-69
2022/11/16 09:39:16;;;;;;;4.57;1.35;;;12.80;92.30;;;;;;5026223;28;20021;-69
2022/11/16 09:42:00;;;;;;;4.20;1.30;;;12.30;93.60;;;;;;5038707;28;20026;-68
2022/11/16 09:44:32;;;;;;;4.57;1.42;;;13.10;92.90;;;;;;5031344;28;20404;-69
2022/11/16 09:46:59;;;;;;;4.75;1.40;;;13.00;91.20;;;;;;5002078;28;20057;-68
2022/11/16 09:49:39;;;;;;;5.80;1.70;;;12.30;92.80;;;;;;5027890;28;20025;-68
2022/11/16 09:52:10;;;;;;;3.40;1.50;;;12.30;94.50;;;;;;5021008;28;20037;-68
2022/11/16 09:54:40;;;;;;;6.32;1.58;;;12.20;94.10;;;;;;5019429;28;20026;-68
2022/11/16 09:57:13;;;;;;;6.20;2.00;;;12.20;94.50;;;;;;5024830;28;20029;-68
2022/11/16 09:59:51;;;;;;;5.03;1.40;;;12.80;93.00;;;;;;5021466;28;20048;-68
2022/11/16 10:02:37;;;;;;;5.60;1.73;;;13.30;90.70;;;;;;5038535;28;20096;-68
2022/11/16 10:05:15;;;;;;;3.92;1.10;;;13.80;89.90;;;;;;5036870;28;20040;-68
2022/11/16 10:07:47;;;;;;;5.60;1.58;;;14.10;88.40;;;;;;5017286;28;20054;-69
2022/11/16 10:10:15;;;;;;;7.63;1.40;;;14.40;87.70;;;;;;5019870;28;20042;-70
2022/11/16 10:12:47;;;;;;;6.20;1.38;;;14.50;86.60;;;;;;5018587;28;20334;-70
2022/11/16 10:15:31;;;;;;;5.53;1.50;;;14.70;86.50;;;;;;5018716;28;20022;-69
2022/11/16 10:18:02;;;;;;;5.25;1.63;;;14.10;87.60;;;;;;5018428;28;20026;-68
2022/11/16 10:20:34;;;;;;;5.82;1.80;;;13.50;89.20;;;;;;5026782;28;20036;-69
2022/11/16 10:23:08;;;;;;;5.53;1.63;;;13.10;90.40;;;;;;5034707;28;20437;-69
2022/11/16 10:25:44;;;;;;;3.17;1.00;;;12.80;90.40;;;;;;5028620;28;20053;-68
2022/11/16 10:28:28;;;;;;;5.88;1.38;;;12.70;90.90;;;;;;5018248;28;20058;-69
2022/11/16 10:31:26;;;;;;;4.20;1.17;;;12.70;91.30;;;;;;5019068;28;20034;-69
2022/11/16 10:33:54;;;;;;;7.43;1.60;;;12.80;90.50;;;;;;5018067;28;20359;-69
2022/11/16 10:36:26;;;;;;;5.53;1.10;;;12.40;89.80;;;;;;5018553;28;20028;-69
2022/11/16 10:38:55;;;;;;;2.90;0.80;;;12.20;90.50;;;;;;5027353;28;20018;-69
2022/11/16 10:41:34;;;;;;;4.65;1.35;;;12.60;89.60;;;;;;5027833;28;20036;-68
2022/11/16 10:44:00;;;;;;;6.45;1.20;;;12.90;88.00;;;;;;5017820;28;20029;-68
2022/11/16 10:46:40;;;;;;;5.07;1.38;;;12.90;87.90;;;;;;5018007;28;20422;-69
2022/11/16 10:49:13;;;;;;;5.88;1.40;;;12.60;88.40;;;;;;5017720;28;20112;-69
2022/11/16 10:51:39;;;;;;;6.50;1.30;;;12.40;88.30;;;;;;5017735;28;20068;-68
2022/11/16 10:54:15;;;;;;;4.43;1.38;;;12.40;89.00;;;;;;5016486;28;20065;-68
2022/11/16 10:56:48;;;;;;;5.85;1.20;;;12.40;89.70;;;;;;5017596;28;20450;-68
2022/11/16 10:59:20;;;;;;;3.72;1.10;;;12.50;88.70;;;;;;5017510;28;20046;-69
2022/11/16 11:01:52;;;;;;;5.20;1.05;;;12.50;89.00;;;;;;5017695;28;20026;-68
2022/11/16 11:04:25;;;;;;;6.55;1.75;;;12.40;89.20;;;;;;5017478;28;20056;-68
2022/11/16 11:07:19;;;;;;;5.15;1.45;;;12.40;89.60;;;;;;5017202;28;20088;-69
2022/11/16 11:09:51;;;;;;;7.82;1.38;;;12.80;89.90;;;;;;5032449;28;20029;-68
2022/11/16 11:12:36;;;;;;;6.47;1.23;;;13.00;87.50;;;;;;5037319;28;20109;-69
2022/11/16 11:15:18;;;;;;;6.47;1.30;;;13.00;87.30;;;;;;5036958;28;20300;-69
2022/11/16 11:17:46;;;;;;;6.53;1.80;;;13.10;87.60;;;;;;5036946;28;20299;-69
2022/11/16 11:20:15;;;;;;;5.13;1.73;;;14.00;86.80;;;;;;5037044;28;20087;-69
2022/11/16 11:23:11;;;;;;;5.47;1.10;;;14.70;83.00;;;;;;5034371;28;20375;-68
2022/11/16 11:25:40;;;;;;;4.75;1.00;;;15.20;82.50;;;;;;5012816;28;20037;-69
2022/11/16 11:28:30;;;;;;;6.30;1.38;;;15.20;79.80;;;;;;5016912;28;20143;-68
2022/11/16 11:31:05;;;;;;;5.10;1.48;;;15.00;79.40;;;;;;5016967;28;20411;-68
2022/11/16 11:34:00;;;;;;;6.07;1.85;;;14.80;80.50;;;;;;5016376;28;20029;-68
2022/11/16 11:36:34;;;;;;;6.60;2.13;;;15.10;80.90;;;;;;5036606;28;20025;-68
2022/11/16 11:39:02;;;;;;;10.77;3.40;;;15.10;79.20;;;;;;5035442;28;20041;-68
2022/11/16 11:41:41;;;;;;;6.22;1.75;;;14.50;81.10;;;;;;5052237;28;20127;-68
2022/11/16 11:44:16;;;;;;;6.55;2.28;;;14.10;81.50;;;;;;5036482;28;20036;-68
2022/11/16 11:47:02;;;;;;;4.45;1.85;;;14.60;80.40;;;;;;5036434;28;20029;-69
2022/11/16 11:49:37;;;;;;;6.18;1.85;;;15.00;79.50;;;;;;5026819;28;20430;-68
2022/11/16 11:52:16;;;;;;;5.03;1.10;;;15.60;78.70;;;;;;5015683;28;20033;-69
2022/11/16 11:54:46;;;;;;;5.18;1.38;;;15.70;78.00;;;;;;5016608;28;20021;-69
2022/11/16 11:57:19;;;;;;;6.35;1.10;;;15.40;78.10;;;;;;5016465;28;20037;-68
2022/11/16 11:59:45;;;;;;;4.43;1.20;;;15.10;77.90;;;;;;5016530;28;20026;-68
2022/11/16 12:02:26;;;;;;;3.65;0.70;;;15.40;78.60;;;;;;5016585;28;20022;-69
2022/11/16 12:05:11;;;;;;;3.75;1.00;;;15.40;77.40;;;;;;5016238;28;20046;-69
2022/11/16 12:08:03;;;;;;;4.78;1.10;;;15.30;78.00;;;;;;5015371;28;20025;-69
2022/11/16 12:10:47;;;;;;;5.00;1.00;;;15.10;77.90;;;;;;5016482;28;20029;-68
2022/11/16 12:13:37;;;;;;;4.18;1.27;;;14.50;78.10;;;;;;5016488;28;20109;-68
2022/11/16 12:16:28;;;;;;;4.70;1.00;;;14.40;81.10;;;;;;5016842;28;20030;-68
2022/11/16 12:19:18;;;;;;;6.15;1.38;;;14.40;78.90;;;;;;5015117;28;20022;-68
2022/11/16 12:22:01;;;;;;;4.60;1.33;;;14.00;79.70;;;;;;5016127;28;20026;-68
2022/11/16 12:24:51;;;;;;;4.10;1.15;;;14.00;79.80;;;;;;5016250;28;20030;-68
2022/11/16 12:27:40;;;;;;;3.70;1.15;;;13.70;79.40;;;;;;5016097;28;20045;-68
2022/11/16 12:30:11;;;;;;;3.92;1.00;;;13.50;80.70;;;;;;5005973;28;20041;-69
2022/11/16 12:33:03;;;;;;;6.93;1.65;;;13.50;80.00;;;;;;5016081;28;20030;-68
2022/11/16 12:35:58;;;;;;;3.63;1.00;;;13.40;81.80;;;;;;5016131;28;20022;-68
2022/11/16 12:38:42;;;;;;;4.78;1.20;;;13.50;81.10;;;;;;5014742;28;20068;-69
2022/11/16 12:41:10;;;;;;;3.60;1.20;;;13.50;81.20;;;;;;5016050;28;20029;-68
2022/11/16 12:43:44;;;;;;;5.60;1.65;;;13.40;81.00;;;;;;5016088;28;20022;-69
2022/11/16 12:46:09;;;;;;;4.70;1.08;;;13.30;81.40;;;;;;5001928;28;20034;-69
2022/11/16 12:48:53;;;;;;;5.65;1.33;;;13.30;82.00;;;;;;5002731;28;20029;-68
2022/11/16 12:51:43;;;;;;;5.95;1.60;;;13.00;81.80;;;;;;5020124;28;20030;-67
2022/11/16 12:54:23;;;;;;;7.25;2.00;;;13.00;82.00;;;;;;5018826;28;20029;-67
2022/11/16 12:56:55;;;;;;;7.22;1.40;;;13.20;81.30;;;;;;5002358;28;20025;-67
2022/11/16 12:59:47;;;;;;;5.03;1.05;;;13.20;81.80;;;;;;5019705;28;20322;-67
2022/11/16 13:02:30;;;;;;;6.72;1.20;;;13.30;82.00;;;;;;5022336;28;20418;-67
2022/11/16 13:05:18;;;;;;;8.52;1.17;;;13.50;81.10;;;;;;5039686;28;20057;-69
2022/11/16 13:07:51;;;;;;;3.78;1.13;;;13.30;81.90;;;;;;5038263;28;20105;-69
2022/11/16 13:10:23;;;;;;;4.50;1.00;;;13.20;82.20;;;;;;5039257;28;20021;-69
2022/11/16 13:12:52;;;;;;;7.35;1.50;;;12.90;82.00;;;;;;5039522;28;20022;-69
2022/11/16 13:15:20;;;;;;;4.28;0.95;;;12.60;83.20;;;;;;5038221;28;20033;-69
2022/11/16 13:18:00;;;;;;;7.60;1.40;;;12.60;82.50;;;;;;5039116;28;20025;-69
2022/11/16 13:20:48;;;;;;;5.45;1.30;;;12.30;83.30;;;;;;5019541;28;20029;-69
2022/11/16 13:23:38;;;;;;;5.47;1.08;;;12.10;84.80;;;;;;5000933;28;20419;-69
2022/11/16 13:26:09;;;;;;;5.35;1.05;;;11.80;84.40;;;;;;5034862;28;20029;-69
2022/11/16 13:28:44;;;;;;;4.07;1.17;;;11.60;85.20;;;;;;5019041;28;20054;-69
2022/11/16 13:31:25;;;;;;;6.43;1.52;;;11.60;85.20;;;;;;5019490;28;20040;-69
2022/11/16 13:34:31;;;;;;;5.25;1.05;;;12.10;84.40;;;;;;5033194;28;20061;-69
2022/11/16 13:36:56;;;;;;;8.25;1.55;;;12.40;82.60;;;;;;5037708;28;20029;-68
2022/11/16 13:39:50;;;;;;;6.50;1.38;;;12.50;82.40;;;;;;5038899;28;20031;-69
2022/11/16 13:42:16;;;;;;;4.40;1.20;;;12.60;82.80;;;;;;5038856;28;20028;-69
2022/11/16 13:44:42;;;;;;;4.75;1.55;;;12.60;83.10;;;;;;5027528;28;20097;-69
2022/11/16 13:47:38;;;;;;;7.72;2.00;;;12.70;82.40;;;;;;5020756;28;20128;-69
2022/11/16 13:50:15;;;;;;;8.48;2.25;;;12.60;82.20;;;;;;5015083;28;20041;-69
2022/11/16 13:52:54;;;;;;;7.68;1.70;;;12.80;82.20;;;;;;5034003;28;20029;-69
2022/11/16 13:55:29;;;;;;;9.15;2.92;;;12.70;81.80;;;;;;5022139;28;20030;-69
2022/11/16 13:57:56;;;;;;;6.47;2.25;;;12.60;81.90;;;;;;5018410;28;20030;-69